sensor_id;sensor_type;location;lat;lon;timestamp;pressure;altitude;pressure_sealevel;temperature;humidity
39729;BME280;25402;42.004;23.088;2022-09-21T00:01:58;97586.09;;;8.15;43.97
39729;BME280;25402;42.004;23.088;2022-09-21T00:04:26;97580.03;;;8.13;44.05
39729;BME280;25402;42.004;23.088;2022-09-21T00:06:53;97588.41;;;8.10;43.98
39729;BME280;25402;42.004;23.088;2022-09-21T00:09:20;97584.69;;;8.11;44.11
39729;BME280;25402;42.004;23.088;2022-09-21T00:11:47;97584.69;;;8.11;44.08
39729;BME280;25402;42.004;23.088;2022-09-21T00:14:15;97591.44;;;8.07;44.00
39729;BME280;25402;42.004;23.088;2022-09-21T00:16:42;97587.56;;;8.10;43.99
39729;BME280;25402;42.004;23.088;2022-09-21T00:19:09;97587.25;;;8.13;44.11
39729;BME280;25402;42.004;23.088;2022-09-21T00:21:38;97580.16;;;8.12;43.62
39729;BME280;25402;42.004;23.088;2022-09-21T00:24:06;97585.72;;;8.10;43.64
39729;BME280;25402;42.004;23.088;2022-09-21T00:26:33;97582.50;;;8.07;43.86
39729;BME280;25402;42.004;23.088;2022-09-21T00:29:01;97576.28;;;8.06;43.60
39729;BME280;25402;42.004;23.088;2022-09-21T00:31:29;97568.88;;;8.00;43.46
39729;BME280;25402;42.004;23.088;2022-09-21T00:33:57;97581.69;;;7.98;43.51
39729;BME280;25402;42.004;23.088;2022-09-21T00:36:25;97577.78;;;7.92;43.80
39729;BME280;25402;42.004;23.088;2022-09-21T00:38:56;97576.28;;;7.82;44.15
39729;BME280;25402;42.004;23.088;2022-09-21T00:41:24;97577.13;;;7.82;44.36
39729;BME280;25402;42.004;23.088;2022-09-21T00:44:27;97582.84;;;7.87;44.38
39729;BME280;25402;42.004;23.088;2022-09-21T00:46:56;97572.59;;;7.83;44.50
39729;BME280;25402;42.004;23.088;2022-09-21T00:49:25;97571.75;;;7.82;44.49
39729;BME280;25402;42.004;23.088;2022-09-21T00:51:53;97572.25;;;7.86;44.58
39729;BME280;25402;42.004;23.088;2022-09-21T00:54:25;97566.88;;;7.86;44.88
39729;BME280;25402;42.004;23.088;2022-09-21T00:56:54;97577.28;;;7.89;44.61
39729;BME280;25402;42.004;23.088;2022-09-21T00:59:27;97578.97;;;7.90;44.55
39729;BME280;25402;42.004;23.088;2022-09-21T01:01:55;97577.28;;;7.89;44.50
39729;BME280;25402;42.004;23.088;2022-09-21T01:04:23;97578.97;;;7.90;44.54
39729;BME280;25402;42.004;23.088;2022-09-21T01:06:53;97580.97;;;7.88;44.71
39729;BME280;25402;42.004;23.088;2022-09-21T01:09:22;97578.97;;;7.90;44.63
39729;BME280;25402;42.004;23.088;2022-09-21T01:11:58;97580.50;;;7.92;44.69
39729;BME280;25402;42.004;23.088;2022-09-21T01:14:52;97575.63;;;7.96;44.61
39729;BME280;25402;42.004;23.088;2022-09-21T01:17:29;97583.03;;;7.94;44.70
39729;BME280;25402;42.004;23.088;2022-09-21T01:20:33;97574.44;;;7.98;44.76
39729;BME280;25402;42.004;23.088;2022-09-21T01:23:20;97579.16;;;7.96;44.75
39729;BME280;25402;42.004;23.088;2022-09-21T01:26:06;97562.81;;;7.90;44.58
39729;BME280;25402;42.004;23.088;2022-09-21T01:28:57;97573.09;;;7.94;44.70
39729;BME280;25402;42.004;23.088;2022-09-21T01:31:33;97567.03;;;7.92;44.44
39729;BME280;25402;42.004;23.088;2022-09-21T01:34:08;97562.63;;;7.91;44.52
39729;BME280;25402;42.004;23.088;2022-09-21T01:36:39;97565.16;;;7.93;44.35
39729;BME280;25402;42.004;23.088;2022-09-21T01:39:11;97569.56;;;7.86;44.41
39729;BME280;25402;42.004;23.088;2022-09-21T01:41:41;97555.25;;;7.85;44.41
39729;BME280;25402;42.004;23.088;2022-09-21T01:44:14;97557.94;;;7.85;44.44
39729;BME280;25402;42.004;23.088;2022-09-21T01:46:45;97546.50;;;7.83;44.23
39729;BME280;25402;42.004;23.088;2022-09-21T01:49:17;97558.59;;;7.87;44.23
39729;BME280;25402;42.004;23.088;2022-09-21T01:51:51;97559.44;;;7.88;44.05
39729;BME280;25402;42.004;23.088;2022-09-21T01:54:22;97560.47;;;7.79;44.19
39729;BME280;25402;42.004;23.088;2022-09-21T01:56:53;97558.25;;;7.74;44.33
39729;BME280;25402;42.004;23.088;2022-09-21T01:59:29;97558.44;;;7.81;44.07
39729;BME280;25402;42.004;23.088;2022-09-21T02:02:05;97554.88;;;7.72;44.06
39729;BME280;25402;42.004;23.088;2022-09-21T02:04:35;97554.72;;;7.74;44.35
39729;BME280;25402;42.004;23.088;2022-09-21T02:07:06;97557.78;;;7.71;44.58
39729;BME280;25402;42.004;23.088;2022-09-21T02:09:35;97561.47;;;7.70;44.60
39729;BME280;25402;42.004;23.088;2022-09-21T02:12:03;97553.88;;;7.65;44.72
39729;BME280;25402;42.004;23.088;2022-09-21T02:14:32;97574.25;;;7.68;44.53
39729;BME280;25402;42.004;23.088;2022-09-21T02:17:09;97573.09;;;7.70;44.60
39729;BME280;25402;42.004;23.088;2022-09-21T02:19:45;97558.63;;;7.71;44.46
39729;BME280;25402;42.004;23.088;2022-09-21T02:22:17;97557.09;;;7.69;44.62
39729;BME280;25402;42.004;23.088;2022-09-21T02:24:53;97561.97;;;7.73;44.64
39729;BME280;25402;42.004;23.088;2022-09-21T02:27:28;97563.16;;;7.71;44.89
39729;BME280;25402;42.004;23.088;2022-09-21T02:30:04;97561.97;;;7.73;44.97
39729;BME280;25402;42.004;23.088;2022-09-21T02:32:38;97570.88;;;7.74;45.04
39729;BME280;25402;42.004;23.088;2022-09-21T02:35:15;97567.34;;;7.73;45.06
39729;BME280;25402;42.004;23.088;2022-09-21T02:37:47;97565.84;;;7.71;45.03
39729;BME280;25402;42.004;23.088;2022-09-21T02:40:20;97567.19;;;7.75;45.00
39729;BME280;25402;42.004;23.088;2022-09-21T02:42:49;97565.88;;;7.87;44.68
39729;BME280;25402;42.004;23.088;2022-09-21T02:45:23;97549.69;;;7.62;44.88
39729;BME280;25402;42.004;23.088;2022-09-21T02:47:53;97571.88;;;7.73;45.10
39729;BME280;25402;42.004;23.088;2022-09-21T02:50:28;97567.50;;;7.72;45.16
39729;BME280;25402;42.004;23.088;2022-09-21T02:53:00;97558.94;;;7.68;45.06
39729;BME280;25402;42.004;23.088;2022-09-21T02:55:28;97575.78;;;7.70;45.13
39729;BME280;25402;42.004;23.088;2022-09-21T02:57:56;97562.66;;;7.67;45.25
39729;BME280;25402;42.004;23.088;2022-09-21T03:00:26;97573.25;;;7.69;45.41
39729;BME280;25402;42.004;23.088;2022-09-21T03:02:53;97567.19;;;7.67;45.57
39729;BME280;25402;42.004;23.088;2022-09-21T03:05:20;97559.78;;;7.69;45.61
39729;BME280;25402;42.004;23.088;2022-09-21T03:07:47;97568.19;;;7.66;45.69
39729;BME280;25402;42.004;23.088;2022-09-21T03:10:14;97560.44;;;7.62;45.87
39729;BME280;25402;42.004;23.088;2022-09-21T03:12:41;97572.91;;;7.63;45.94
39729;BME280;25402;42.004;23.088;2022-09-21T03:15:09;97578.81;;;7.67;45.95
39729;BME280;25402;42.004;23.088;2022-09-21T03:17:37;97577.97;;;7.67;45.86
39729;BME280;25402;42.004;23.088;2022-09-21T03:20:05;97587.03;;;7.66;45.75
39729;BME280;25402;42.004;23.088;2022-09-21T03:22:32;97582.31;;;7.59;45.70
39729;BME280;25402;42.004;23.088;2022-09-21T03:25:00;97570.22;;;7.63;49.99
39729;BME280;25402;42.004;23.088;2022-09-21T03:27:28;97573.53;;;8.63;47.60
39729;BME280;25402;42.004;23.088;2022-09-21T03:29:55;97581.78;;;9.09;47.80
39729;BME280;25402;42.004;23.088;2022-09-21T03:32:22;97578.25;;;9.70;45.93
39729;BME280;25402;42.004;23.088;2022-09-21T03:34:51;97576.59;;;10.29;44.45
39729;BME280;25402;42.004;23.088;2022-09-21T03:37:17;97579.34;;;10.73;42.87
39729;BME280;25402;42.004;23.088;2022-09-21T03:39:45;97578.34;;;11.04;42.22
39729;BME280;25402;42.004;23.088;2022-09-21T03:42:12;97575.81;;;11.32;40.87
39729;BME280;25402;42.004;23.088;2022-09-21T03:44:39;97574.13;;;11.52;39.67
39729;BME280;25402;42.004;23.088;2022-09-21T03:47:06;97565.28;;;11.79;39.32
39729;BME280;25402;42.004;23.088;2022-09-21T03:49:33;97550.63;;;11.74;38.73
39729;BME280;25402;42.004;23.088;2022-09-21T03:52:02;97569.84;;;11.94;37.89
39729;BME280;25402;42.004;23.088;2022-09-21T03:54:29;97565.75;;;12.04;37.85
39729;BME280;25402;42.004;23.088;2022-09-21T03:56:56;97568.75;;;12.16;37.10
39729;BME280;25402;42.004;23.088;2022-09-21T03:59:23;97562.47;;;12.09;36.94
39729;BME280;25402;42.004;23.088;2022-09-21T04:01:50;97563.97;;;12.18;36.83
39729;BME280;25402;42.004;23.088;2022-09-21T04:04:17;97563.97;;;12.18;36.51
39729;BME280;25402;42.004;23.088;2022-09-21T04:06:45;97579.63;;;12.16;36.57
39729;BME280;25402;42.004;23.088;2022-09-21T04:09:13;97577.25;;;12.06;36.53
39729;BME280;25402;42.004;23.088;2022-09-21T04:11:40;97581.44;;;12.09;36.58
39729;BME280;25402;42.004;23.088;2022-09-21T04:14:07;97583.63;;;12.20;36.32
39729;BME280;25402;42.004;23.088;2022-09-21T04:16:35;97580.22;;;12.11;36.71
39729;BME280;25402;42.004;23.088;2022-09-21T04:19:02;97582.72;;;12.13;36.34
39729;BME280;25402;42.004;23.088;2022-09-21T04:21:29;97575.69;;;12.19;36.27
39729;BME280;25402;42.004;23.088;2022-09-21T04:23:56;97577.47;;;12.33;36.38
39729;BME280;25402;42.004;23.088;2022-09-21T04:26:27;97581.00;;;12.33;36.54
39729;BME280;25402;42.004;23.088;2022-09-21T04:28:56;97578.81;;;12.43;36.00
39729;BME280;25402;42.004;23.088;2022-09-21T04:31:24;97576.28;;;12.42;36.16
39729;BME280;25402;42.004;23.088;2022-09-21T04:33:53;97571.84;;;12.34;36.30
39729;BME280;25402;42.004;23.088;2022-09-21T04:36:21;97588.59;;;12.44;36.12
39729;BME280;25402;42.004;23.088;2022-09-21T04:38:49;97577.66;;;12.31;36.21
39729;BME280;25402;42.004;23.088;2022-09-21T04:41:16;97584.72;;;12.54;35.88
39729;BME280;25402;42.004;23.088;2022-09-21T04:43:46;97578.50;;;12.60;36.03
39729;BME280;25402;42.004;23.088;2022-09-21T04:46:17;97572.44;;;12.58;35.97
39729;BME280;25402;42.004;23.088;2022-09-21T04:48:46;97568.91;;;12.57;36.10
39729;BME280;25402;42.004;23.088;2022-09-21T04:51:15;97581.44;;;12.58;35.79
39729;BME280;25402;42.004;23.088;2022-09-21T04:53:43;97589.75;;;12.57;35.94
39729;BME280;25402;42.004;23.088;2022-09-21T04:56:13;97590.63;;;12.64;36.06
39729;BME280;25402;42.004;23.088;2022-09-21T04:58:41;97581.44;;;12.65;35.91
39729;BME280;25402;42.004;23.088;2022-09-21T05:01:26;97601.88;;;12.82;35.88
39729;BME280;25402;42.004;23.088;2022-09-21T05:04:14;97594.19;;;12.64;35.84
39729;BME280;25402;42.004;23.088;2022-09-21T05:07:00;97594.56;;;12.61;36.11
39729;BME280;25402;42.004;23.088;2022-09-21T05:12:23;97603.13;;;12.58;35.70
39729;BME280;25402;42.004;23.088;2022-09-21T05:14:50;97587.84;;;12.29;35.73
39729;BME280;25402;42.004;23.088;2022-09-21T05:17:37;97485.63;;;11.38;35.82
39729;BME280;25402;42.004;23.088;2022-09-21T05:21:00;97558.16;;;11.57;36.43
39729;BME280;25402;42.004;23.088;2022-09-21T05:31:44;97460.75;;;10.77;37.37
39729;BME280;25402;42.004;23.088;2022-09-21T05:42:25;97584.16;;;11.88;36.56
39729;BME280;25402;42.004;23.088;2022-09-21T05:44:55;97515.00;;;11.56;36.80
39729;BME280;25402;42.004;23.088;2022-09-21T05:53:35;97505.00;;;11.77;35.91
39729;BME280;25402;42.004;23.088;2022-09-21T05:56:31;97495.84;;;11.78;35.75
39729;BME280;25402;42.004;23.088;2022-09-21T06:45:57;97630.38;;;16.29;29.58
39729;BME280;25402;42.004;23.088;2022-09-21T06:54:07;97637.69;;;15.52;29.45
39729;BME280;25402;42.004;23.088;2022-09-21T06:56:57;97625.63;;;15.22;29.45
39729;BME280;25402;42.004;23.088;2022-09-21T07:04:38;97629.63;;;15.13;29.94
39729;BME280;25402;42.004;23.088;2022-09-21T07:09:53;97619.41;;;14.75;30.39
39729;BME280;25402;42.004;23.088;2022-09-21T07:25:49;97605.94;;;15.13;30.03
39729;BME280;25402;42.004;23.088;2022-09-21T07:33:39;97607.84;;;15.64;28.97
39729;BME280;25402;42.004;23.088;2022-09-21T07:38:55;97588.13;;;16.07;29.21
39729;BME280;25402;42.004;23.088;2022-09-21T07:42:03;97593.94;;;16.42;28.92
39729;BME280;25402;42.004;23.088;2022-09-21T07:44:45;97589.88;;;16.57;28.90
39729;BME280;25402;42.004;23.088;2022-09-21T07:50:02;97595.19;;;15.89;27.42
39729;BME280;25402;42.004;23.088;2022-09-21T08:36:49;97532.69;;;12.71;29.91
39729;BME280;25402;42.004;23.088;2022-09-21T08:39:25;97434.19;;;12.08;29.74
39729;BME280;25402;42.004;23.088;2022-09-21T08:42:37;97454.00;;;12.09;29.73
39729;BME280;25402;42.004;23.088;2022-09-21T08:45:20;97430.75;;;12.00;30.55
39729;BME280;25402;42.004;23.088;2022-09-21T08:48:02;97382.84;;;11.79;30.21
39729;BME280;25402;42.004;23.088;2022-09-21T08:50:36;97432.44;;;12.01;30.20
39729;BME280;25402;42.004;23.088;2022-09-21T08:53:16;97499.38;;;12.56;30.09
39729;BME280;25402;42.004;23.088;2022-09-21T08:55:54;97467.66;;;12.57;29.75
39729;BME280;25402;42.004;23.088;2022-09-21T08:58:26;97472.38;;;12.41;30.01
39729;BME280;25402;42.004;23.088;2022-09-21T09:01:05;97544.63;;;13.25;29.92
39729;BME280;25402;42.004;23.088;2022-09-21T09:03:53;97493.13;;;12.97;29.38
39729;BME280;25402;42.004;23.088;2022-09-21T09:06:33;97444.88;;;12.99;29.44
39729;BME280;25402;42.004;23.088;2022-09-21T09:14:38;97540.22;;;14.17;28.38
39729;BME280;25402;42.004;23.088;2022-09-21T09:17:34;97516.41;;;14.39;28.14
39729;BME280;25402;42.004;23.088;2022-09-21T09:20:13;97532.28;;;14.75;27.60
39729;BME280;25402;42.004;23.088;2022-09-21T09:25:20;97521.13;;;14.90;26.92
39729;BME280;25402;42.004;23.088;2022-09-21T09:27:51;97509.19;;;14.84;26.83
39729;BME280;25402;42.004;23.088;2022-09-21T09:33:01;97429.34;;;14.13;26.85
39729;BME280;25402;42.004;23.088;2022-09-21T09:48:53;97493.38;;;15.19;25.73
39729;BME280;25402;42.004;23.088;2022-09-21T09:51:37;97484.34;;;15.25;25.26
39729;BME280;25402;42.004;23.088;2022-09-21T09:54:13;97479.75;;;14.62;26.04
39729;BME280;25402;42.004;23.088;2022-09-21T10:04:33;97454.88;;;15.09;25.60
39729;BME280;25402;42.004;23.088;2022-09-21T10:07:01;97460.38;;;14.83;25.62
39729;BME280;25402;42.004;23.088;2022-09-21T10:09:38;97449.34;;;15.22;25.65
39729;BME280;25402;42.004;23.088;2022-09-21T10:12:22;97456.91;;;15.14;25.16
39729;BME280;25402;42.004;23.088;2022-09-21T10:14:51;97444.09;;;15.21;24.66
39729;BME280;25402;42.004;23.088;2022-09-21T10:17:19;97449.88;;;15.69;24.04
39729;BME280;25402;42.004;23.088;2022-09-21T10:19:59;97439.06;;;15.87;23.43
39729;BME280;25402;42.004;23.088;2022-09-21T10:22:34;97438.94;;;16.01;23.18
39729;BME280;25402;42.004;23.088;2022-09-21T10:25:01;97439.47;;;16.34;23.14
39729;BME280;25402;42.004;23.088;2022-09-21T10:27:33;97431.88;;;16.18;23.23
39729;BME280;25402;42.004;23.088;2022-09-21T10:30:03;97418.97;;;16.25;23.51
39729;BME280;25402;42.004;23.088;2022-09-21T10:32:36;97421.13;;;16.41;24.14
39729;BME280;25402;42.004;23.088;2022-09-21T10:50:54;97414.59;;;16.42;22.92
39729;BME280;25402;42.004;23.088;2022-09-21T10:53:40;97413.00;;;16.89;22.39
39729;BME280;25402;42.004;23.088;2022-09-21T10:56:22;97410.44;;;16.94;22.93
39729;BME280;25402;42.004;23.088;2022-09-21T11:01:45;97371.63;;;15.94;23.47
39729;BME280;25402;42.004;23.088;2022-09-21T11:04:18;97380.34;;;16.64;23.78
39729;BME280;25402;42.004;23.088;2022-09-21T11:06:52;97397.06;;;16.31;24.32
39729;BME280;25402;42.004;23.088;2022-09-21T11:12:00;97394.16;;;16.51;23.89
39729;BME280;25402;42.004;23.088;2022-09-21T11:14:54;97397.31;;;16.85;23.99
39729;BME280;25402;42.004;23.088;2022-09-21T11:17:31;97397.19;;;16.80;23.63
39729;BME280;25402;42.004;23.088;2022-09-21T11:20:20;97395.06;;;16.63;23.67
39729;BME280;25402;42.004;23.088;2022-09-21T11:28:20;97410.91;;;16.37;22.62
39729;BME280;25402;42.004;23.088;2022-09-21T11:33:39;97336.25;;;15.88;22.54
39729;BME280;25402;42.004;23.088;2022-09-21T11:36:20;97383.25;;;16.26;22.90
39729;BME280;25402;42.004;23.088;2022-09-21T11:39:03;97378.22;;;16.66;22.81
39729;BME280;25402;42.004;23.088;2022-09-21T11:42:01;97389.13;;;16.30;22.92
39729;BME280;25402;42.004;23.088;2022-09-21T11:44:52;97386.81;;;16.52;22.18
39729;BME280;25402;42.004;23.088;2022-09-21T11:47:41;97377.78;;;16.99;22.16
39729;BME280;25402;42.004;23.088;2022-09-21T11:50:23;97374.09;;;17.24;21.59
39729;BME280;25402;42.004;23.088;2022-09-21T11:53:02;97386.09;;;17.23;21.35
39729;BME280;25402;42.004;23.088;2022-09-21T11:58:36;97388.97;;;16.43;22.71
39729;BME280;25402;42.004;23.088;2022-09-21T12:01:33;97381.78;;;16.67;23.05
39729;BME280;25402;42.004;23.088;2022-09-21T12:07:12;97386.06;;;16.93;22.28
39729;BME280;25402;42.004;23.088;2022-09-21T12:10:29;97366.22;;;17.16;22.46
39729;BME280;25402;42.004;23.088;2022-09-21T12:13:07;97369.50;;;17.06;22.32
39729;BME280;25402;42.004;23.088;2022-09-21T12:15:50;97376.84;;;16.76;22.48
39729;BME280;25402;42.004;23.088;2022-09-21T12:26:10;97359.25;;;16.17;23.58
39729;BME280;25402;42.004;23.088;2022-09-21T12:31:22;97364.53;;;16.12;23.51
39729;BME280;25402;42.004;23.088;2022-09-21T12:36:32;97365.88;;;17.12;22.54
39729;BME280;25402;42.004;23.088;2022-09-21T12:47:24;97359.69;;;16.68;22.53
39729;BME280;25402;42.004;23.088;2022-09-21T12:58:09;97359.38;;;16.77;21.90
39729;BME280;25402;42.004;23.088;2022-09-21T13:00:56;97318.00;;;16.91;22.14
39729;BME280;25402;42.004;23.088;2022-09-21T13:03:32;97336.38;;;17.67;21.84
39729;BME280;25402;42.004;23.088;2022-09-21T13:06:33;97328.41;;;17.54;21.39
39729;BME280;25402;42.004;23.088;2022-09-21T13:09:05;97355.88;;;17.59;20.86
39729;BME280;25402;42.004;23.088;2022-09-21T13:11:49;97355.75;;;17.66;21.00
39729;BME280;25402;42.004;23.088;2022-09-21T13:14:19;97351.03;;;17.96;20.66
39729;BME280;25402;42.004;23.088;2022-09-21T13:16:55;97357.00;;;17.82;20.59
39729;BME280;25402;42.004;23.088;2022-09-21T13:19:26;97336.59;;;17.66;20.66
39729;BME280;25402;42.004;23.088;2022-09-21T13:24:42;97330.81;;;18.21;20.07
39729;BME280;25402;42.004;23.088;2022-09-21T13:27:10;97338.56;;;18.00;20.36
39729;BME280;25402;42.004;23.088;2022-09-21T13:29:40;97341.00;;;17.67;20.93
39729;BME280;25402;42.004;23.088;2022-09-21T13:38:26;97335.75;;;17.30;21.32
39729;BME280;25402;42.004;23.088;2022-09-21T13:41:24;97336.81;;;17.29;21.66
39729;BME280;25402;42.004;23.088;2022-09-21T13:46:54;97337.91;;;17.10;21.53
39729;BME280;25402;42.004;23.088;2022-09-21T13:49:33;97312.69;;;16.66;21.97
39729;BME280;25402;42.004;23.088;2022-09-21T13:52:16;97325.34;;;16.91;21.84
39729;BME280;25402;42.004;23.088;2022-09-21T13:54:53;97319.22;;;16.47;22.04
39729;BME280;25402;42.004;23.088;2022-09-21T13:57:30;97336.09;;;16.38;22.14
39729;BME280;25402;42.004;23.088;2022-09-21T14:02:33;97320.88;;;16.66;21.62
39729;BME280;25402;42.004;23.088;2022-09-21T14:05:06;97312.50;;;16.80;21.75
39729;BME280;25402;42.004;23.088;2022-09-21T14:07:36;97323.09;;;16.88;21.51
39729;BME280;25402;42.004;23.088;2022-09-21T14:10:08;97328.69;;;16.63;21.54
39729;BME280;25402;42.004;23.088;2022-09-21T14:12:40;97316.72;;;16.46;22.23
39729;BME280;25402;42.004;23.088;2022-09-21T14:15:31;97344.38;;;16.13;21.80
39729;BME280;25402;42.004;23.088;2022-09-21T14:21:17;97318.66;;;15.34;22.81
39729;BME280;25402;42.004;23.088;2022-09-21T14:24:17;97326.13;;;15.14;23.52
39729;BME280;25402;42.004;23.088;2022-09-21T14:29:52;97320.31;;;14.66;24.47
39729;BME280;25402;42.004;23.088;2022-09-21T14:32:22;97319.44;;;14.34;25.21
39729;BME280;25402;42.004;23.088;2022-09-21T14:34:53;97321.75;;;14.23;25.53
39729;BME280;25402;42.004;23.088;2022-09-21T14:37:30;97323.22;;;14.19;25.85
39729;BME280;25402;42.004;23.088;2022-09-21T14:40:03;97324.69;;;14.22;25.46
39729;BME280;25402;42.004;23.088;2022-09-21T14:42:38;97337.66;;;14.20;25.52
39729;BME280;25402;42.004;23.088;2022-09-21T14:45:12;97333.25;;;14.19;25.60
39729;BME280;25402;42.004;23.088;2022-09-21T14:47:58;97335.81;;;14.07;25.63
39729;BME280;25402;42.004;23.088;2022-09-21T14:50:46;97346.88;;;14.19;25.51
39729;BME280;25402;42.004;23.088;2022-09-21T17:18:58;97292.28;;;9.82;31.05
39729;BME280;25402;42.004;23.088;2022-09-21T17:21:32;97363.13;;;10.21;31.23
39729;BME280;25402;42.004;23.088;2022-09-21T17:24:22;97321.44;;;9.57;32.01
39729;BME280;25402;42.004;23.088;2022-09-21T17:26:53;97372.66;;;9.80;32.17
39729;BME280;25402;42.004;23.088;2022-09-21T17:32:22;97410.84;;;9.77;32.89
39729;BME280;25402;42.004;23.088;2022-09-21T17:35:24;97328.94;;;9.09;33.29
39729;BME280;25402;42.004;23.088;2022-09-21T17:38:31;97422.66;;;9.61;33.48
39729;BME280;25402;42.004;23.088;2022-09-21T17:41:15;97335.19;;;9.10;33.67
39729;BME280;25402;42.004;23.088;2022-09-21T17:43:57;97333.50;;;9.09;33.65
39729;BME280;25402;42.004;23.088;2022-09-21T17:46:30;97326.25;;;8.86;34.25
39729;BME280;25402;42.004;23.088;2022-09-21T17:49:02;97346.72;;;8.81;34.26
39729;BME280;25402;42.004;23.088;2022-09-21T17:51:33;97478.53;;;9.60;34.40
39729;BME280;25402;42.004;23.088;2022-09-21T17:54:20;97351.22;;;8.65;34.90
39729;BME280;25402;42.004;23.088;2022-09-21T17:56:56;97406.66;;;8.91;35.03
39729;BME280;25402;42.004;23.088;2022-09-21T17:59:30;97496.63;;;9.37;35.30
39729;BME280;25402;42.004;23.088;2022-09-21T18:02:16;97510.59;;;9.41;35.54
39729;BME280;25402;42.004;23.088;2022-09-21T18:04:45;97509.63;;;9.02;36.09
39729;BME280;25402;42.004;23.088;2022-09-21T18:07:15;97499.91;;;8.93;36.25
39729;BME280;25402;42.004;23.088;2022-09-21T18:09:44;97506.84;;;8.88;36.74
39729;BME280;25402;42.004;23.088;2022-09-21T18:15:18;97517.72;;;9.02;36.73
39729;BME280;25402;42.004;23.088;2022-09-21T18:18:01;97518.28;;;8.90;37.00
39729;BME280;25402;42.004;23.088;2022-09-21T18:20:38;97515.00;;;8.72;37.43
39729;BME280;25402;42.004;23.088;2022-09-21T18:23:16;97525.75;;;8.80;37.35
39729;BME280;25402;42.004;23.088;2022-09-21T18:25:46;97541.78;;;8.73;37.56
39729;BME280;25402;42.004;23.088;2022-09-21T18:28:21;97539.44;;;8.70;37.65
39729;BME280;25402;42.004;23.088;2022-09-21T18:30:57;97532.41;;;8.53;38.01
39729;BME280;25402;42.004;23.088;2022-09-21T18:33:33;97537.75;;;8.69;37.71
39729;BME280;25402;42.004;23.088;2022-09-21T18:36:12;97536.44;;;8.65;37.75
39729;BME280;25402;42.004;23.088;2022-09-21T18:38:51;97526.00;;;8.62;37.92
39729;BME280;25402;42.004;23.088;2022-09-21T18:41:30;97525.00;;;8.55;37.84
39729;BME280;25402;42.004;23.088;2022-09-21T18:44:10;97537.06;;;8.75;37.69
39729;BME280;25402;42.004;23.088;2022-09-21T18:46:50;97536.13;;;8.60;37.88
39729;BME280;25402;42.004;23.088;2022-09-21T18:49:37;97534.38;;;8.67;37.87
39729;BME280;25402;42.004;23.088;2022-09-21T18:52:20;97542.47;;;8.75;37.74
39729;BME280;25402;42.004;23.088;2022-09-21T18:54:51;97552.53;;;8.34;38.58
39729;BME280;25402;42.004;23.088;2022-09-21T18:57:19;97551.16;;;8.38;38.58
39729;BME280;25402;42.004;23.088;2022-09-21T18:59:48;97555.53;;;8.47;38.39
39729;BME280;25402;42.004;23.088;2022-09-21T19:02:18;97543.94;;;8.30;38.79
39729;BME280;25402;42.004;23.088;2022-09-21T19:04:46;97549.69;;;8.27;38.82
39729;BME280;25402;42.004;23.088;2022-09-21T19:07:20;97556.03;;;8.34;38.86
39729;BME280;25402;42.004;23.088;2022-09-21T19:10:04;97550.22;;;8.15;39.28
39729;BME280;25402;42.004;23.088;2022-09-21T19:12:53;97544.94;;;8.05;39.55
39729;BME280;25402;42.004;23.088;2022-09-21T19:15:27;97548.84;;;8.03;39.73
39729;BME280;25402;42.004;23.088;2022-09-21T19:18:15;97546.66;;;8.22;39.50
39729;BME280;25402;42.004;23.088;2022-09-21T19:21:01;97556.91;;;8.19;39.71
39729;BME280;25402;42.004;23.088;2022-09-21T19:23:51;97557.59;;;8.21;39.63
39729;BME280;25402;42.004;23.088;2022-09-21T19:26:41;97556.09;;;7.86;40.57
39729;BME280;25402;42.004;23.088;2022-09-21T19:29:25;97560.09;;;7.74;40.80
39729;BME280;25402;42.004;23.088;2022-09-21T19:31:56;97560.28;;;7.96;40.57
39729;BME280;25402;42.004;23.088;2022-09-21T19:34:23;97557.59;;;7.88;40.75
39729;BME280;25402;42.004;23.088;2022-09-21T19:36:53;97561.78;;;7.75;40.91
39729;BME280;25402;42.004;23.088;2022-09-21T19:39:22;97563.16;;;7.95;40.67
39729;BME280;25402;42.004;23.088;2022-09-21T19:42:01;97569.25;;;8.13;40.32
39729;BME280;25402;42.004;23.088;2022-09-21T19:44:42;97541.94;;;7.92;40.22
39729;BME280;25402;42.004;23.088;2022-09-21T19:47:18;97570.75;;;8.16;40.05
39729;BME280;25402;42.004;23.088;2022-09-21T19:49:50;97582.66;;;8.05;40.41
39729;BME280;25402;42.004;23.088;2022-09-21T19:52:25;97583.56;;;8.14;40.24
39729;BME280;25402;42.004;23.088;2022-09-21T19:54:54;97583.06;;;8.18;40.16
39729;BME280;25402;42.004;23.088;2022-09-21T19:57:41;97582.00;;;8.03;40.55
39729;BME280;25402;42.004;23.088;2022-09-21T20:00:35;97577.13;;;8.07;40.47
39729;BME280;25402;42.004;23.088;2022-09-21T20:03:05;97576.78;;;8.10;40.34
39729;BME280;25402;42.004;23.088;2022-09-21T20:05:45;97596.47;;;8.10;40.44
39729;BME280;25402;42.004;23.088;2022-09-21T20:08:18;97562.47;;;8.09;40.29
39729;BME280;25402;42.004;23.088;2022-09-21T20:11:05;97588.59;;;8.33;40.27
39729;BME280;25402;42.004;23.088;2022-09-21T20:13:55;97582.84;;;8.28;40.20
39729;BME280;25402;42.004;23.088;2022-09-21T20:16:37;97594.31;;;8.30;40.20
39729;BME280;25402;42.004;23.088;2022-09-21T20:19:16;97596.00;;;8.23;40.46
39729;BME280;25402;42.004;23.088;2022-09-21T20:21:49;97601.03;;;8.10;40.63
39729;BME280;25402;42.004;23.088;2022-09-21T20:24:24;97601.22;;;8.32;40.16
39729;BME280;25402;42.004;23.088;2022-09-21T20:26:54;97600.41;;;8.16;40.51
39729;BME280;25402;42.004;23.088;2022-09-21T20:29:23;97581.69;;;7.98;40.80
39729;BME280;25402;42.004;23.088;2022-09-21T20:31:51;97605.09;;;8.30;40.27
39729;BME280;25402;42.004;23.088;2022-09-21T20:34:19;97597.84;;;8.22;40.24
39729;BME280;25402;42.004;23.088;2022-09-21T20:36:46;97597.53;;;8.17;40.39
39729;BME280;25402;42.004;23.088;2022-09-21T20:39:13;97615.03;;;8.21;40.52
39729;BME280;25402;42.004;23.088;2022-09-21T20:41:40;97614.88;;;8.31;40.34